Time;durP1;ratioP1;P1;durP2;ratioP2;P2;SDS_P1;SDS_P2;PMS_P1;PMS_P2;Temp;Humidity;BMP_temperature;BMP_pressure;BME280_temperature;BME280_humidity;BME280_pressure;Samples;Min_cycle;Max_cycle;Signal;HPM_P1;HPM_P2
2023/12/24 00:02:13;;;;;;;;;3.00;1.00;;;;;9.63;89.29;99055.53;5098012;28;9673;-59
2023/12/24 00:04:42;;;;;;;;;0.50;0.50;;;;;9.60;89.18;99048.66;5095482;28;8868;-59
2023/12/24 00:07:09;;;;;;;;;3.00;3.00;;;;;9.62;88.90;99040.53;5094298;28;8817;-58
2023/12/24 00:09:37;;;;;;;;;0.00;0.00;;;;;9.60;89.40;99039.84;5077463;28;9512;-58
2023/12/24 00:12:06;;;;;;;;;1.00;1.00;;;;;9.61;88.87;99029.06;5106108;28;8828;-59
2023/12/24 00:14:34;;;;;;;;;3.00;3.00;;;;;9.61;89.32;99025.56;5120429;28;8892;-58
2023/12/24 00:17:01;;;;;;;;;2.50;2.00;;;;;9.57;88.63;99025.00;5120570;28;8832;-59
2023/12/24 00:19:29;;;;;;;;;2.00;2.00;;;;;9.50;88.58;99023.06;5119497;28;8847;-59
2023/12/24 00:21:57;;;;;;;;;2.50;2.50;;;;;9.40;88.88;99020.38;5118854;28;9805;-59
2023/12/24 00:24:25;;;;;;;;;1.00;1.00;;;;;9.31;89.34;99021.19;5097134;28;8886;-58
2023/12/24 00:26:53;;;;;;;;;1.00;1.00;;;;;9.25;89.35;99029.72;5078371;28;8828;-58
2023/12/24 00:29:20;;;;;;;;;0.00;0.00;;;;;9.20;89.68;99028.44;5078729;28;8832;-59
2023/12/24 00:31:48;;;;;;;;;1.50;1.50;;;;;9.15;89.83;99012.91;5078487;28;8836;-58
2023/12/24 00:34:16;;;;;;;;;1.00;1.00;;;;;9.11;89.68;99015.97;5079126;28;8836;-59
2023/12/24 00:36:44;;;;;;;;;3.00;2.50;;;;;9.08;90.21;99014.44;5079210;28;8844;-58
2023/12/24 00:39:11;;;;;;;;;1.00;1.00;;;;;9.05;90.50;99003.25;5079195;28;8905;-59
2023/12/24 00:41:39;;;;;;;;;3.25;2.00;;;;;9.03;90.18;99013.16;5079749;28;8847;-59
2023/12/24 00:44:07;;;;;;;;;0.00;0.00;;;;;8.99;90.22;99017.06;5079142;28;8819;-59
2023/12/24 00:46:35;;;;;;;;;0.75;0.75;;;;;8.97;90.54;99019.84;5078595;28;8836;-58
2023/12/24 00:49:03;;;;;;;;;2.00;1.00;;;;;8.95;90.07;99016.47;5078816;28;8925;-59
2023/12/24 00:51:31;;;;;;;;;3.00;3.00;;;;;8.94;90.08;99014.81;5078643;28;8828;-59
2023/12/24 00:54:00;;;;;;;;;1.00;1.00;;;;;8.94;90.59;98998.88;5079013;28;8816;-57
2023/12/24 00:56:27;;;;;;;;;3.00;3.00;;;;;8.95;90.46;99008.50;5079015;28;8824;-56
2023/12/24 00:58:55;;;;;;;;;0.75;0.50;;;;;8.97;90.36;99014.53;5079453;28;8850;-59
2023/12/24 01:01:23;;;;;;;;;0.00;0.00;;;;;9.00;90.88;99010.75;5097032;28;8829;-57
2023/12/24 01:03:51;;;;;;;;;0.75;0.75;;;;;9.04;90.48;99020.97;5098982;28;8960;-56
2023/12/24 01:06:19;;;;;;;;;0.50;0.50;;;;;9.11;90.18;99022.13;5098786;28;8846;-56
2023/12/24 01:08:48;;;;;;;;;1.00;1.00;;;;;9.22;90.00;99030.00;5098111;28;8822;-58
2023/12/24 01:11:15;;;;;;;;;3.50;3.00;;;;;9.31;89.53;99025.66;5097265;28;8829;-56
2023/12/24 01:13:43;;;;;;;;;0.00;0.00;;;;;9.36;89.40;99021.63;5107592;28;8988;-56
2023/12/24 01:16:11;;;;;;;;;1.00;0.75;;;;;9.38;89.55;99027.66;5091553;28;8836;-58
2023/12/24 01:18:38;;;;;;;;;0.50;0.50;;;;;9.41;89.17;99024.69;5102974;28;8934;-58
2023/12/24 01:21:06;;;;;;;;;1.00;1.00;;;;;9.43;89.41;99032.53;5119196;28;8816;-58
2023/12/24 01:23:34;;;;;;;;;2.00;1.00;;;;;9.45;89.15;99034.09;5118806;28;8853;-56
2023/12/24 01:26:02;;;;;;;;;0.50;0.00;;;;;9.44;89.09;99037.72;5119411;28;8815;-56
2023/12/24 01:28:29;;;;;;;;;1.50;1.50;;;;;9.45;89.43;99038.56;5118759;28;8819;-58
2023/12/24 01:30:57;;;;;;;;;2.00;2.00;;;;;9.42;89.46;99038.84;5104627;28;8841;-57
2023/12/24 01:33:25;;;;;;;;;0.75;0.75;;;;;9.38;89.25;99027.66;5082989;28;8848;-56
2023/12/24 01:35:53;;;;;;;;;1.00;1.00;;;;;9.35;89.01;99022.59;5077854;28;9588;-58
2023/12/24 01:38:20;;;;;;;;;0.00;0.00;;;;;9.33;89.36;99024.56;5077866;28;9577;-58
2023/12/24 01:40:49;;;;;;;;;0.00;0.00;;;;;9.32;89.60;99022.03;5078061;28;8917;-57
2023/12/24 01:43:17;;;;;;;;;0.00;0.00;;;;;9.31;89.69;99021.19;5078372;28;9493;-58
2023/12/24 01:45:45;;;;;;;;;0.75;0.75;;;;;9.28;89.37;99008.16;5077895;28;9545;-58
2023/12/24 01:48:13;;;;;;;;;2.00;2.00;;;;;9.26;89.28;99002.16;5077074;28;8854;-57
2023/12/24 01:50:40;;;;;;;;;0.00;0.00;;;;;9.23;89.62;98994.47;5077957;28;8962;-58
2023/12/24 01:53:10;;;;;;;;;0.50;0.00;;;;;9.21;89.91;98999.09;5077769;28;9505;-57
2023/12/24 01:55:38;;;;;;;;;0.75;0.75;;;;;9.19;89.78;98998.38;5077665;28;8913;-59
2023/12/24 01:58:06;;;;;;;;;1.00;1.00;;;;;9.17;89.82;98991.50;5077817;28;8820;-58
2023/12/24 02:00:33;;;;;;;;;0.25;0.00;;;;;9.16;90.17;98990.69;5077643;28;8808;-58
2023/12/24 02:03:01;;;;;;;;;0.00;0.00;;;;;9.14;90.12;98997.97;5077432;28;8855;-57
2023/12/24 02:05:29;;;;;;;;;1.00;0.75;;;;;9.13;90.38;98996.25;5077163;28;8933;-57
2023/12/24 02:07:56;;;;;;;;;1.50;1.50;;;;;9.12;89.88;99009.69;5095277;28;8832;-59
2023/12/24 02:10:23;;;;;;;;;0.00;0.00;;;;;9.12;89.93;99007.84;5097173;28;8898;-58
2023/12/24 02:12:51;;;;;;;;;0.00;0.00;;;;;9.12;90.16;98999.88;5096638;28;9508;-58
2023/12/24 02:15:19;;;;;;;;;0.00;0.00;;;;;9.12;90.32;99012.34;5095820;28;8826;-59
2023/12/24 02:17:47;;;;;;;;;0.00;0.00;;;;;9.13;90.36;99009.53;5095969;28;8826;-58
2023/12/24 02:20:15;;;;;;;;;0.00;0.00;;;;;9.13;90.15;98982.97;5096388;28;8842;-58
2023/12/24 02:22:43;;;;;;;;;0.00;0.00;;;;;9.14;89.95;98973.22;5096284;28;8824;-58
2023/12/24 02:25:10;;;;;;;;;0.00;0.00;;;;;9.13;90.38;98977.66;5096989;28;8822;-59
2023/12/24 02:27:38;;;;;;;;;0.75;0.75;;;;;9.14;90.40;98976.72;5097454;28;8822;-58
2023/12/24 02:30:06;;;;;;;;;0.00;0.00;;;;;9.13;90.53;98968.88;5097310;28;8836;-59
2023/12/24 02:32:34;;;;;;;;;0.00;0.00;;;;;9.13;90.66;98969.69;5096090;28;8989;-57
2023/12/24 02:35:02;;;;;;;;;0.75;0.75;;;;;9.13;90.66;98961.72;5097315;28;8930;-58
2023/12/24 02:37:30;;;;;;;;;0.00;0.00;;;;;9.13;89.86;98951.09;5097010;28;8833;-59
2023/12/24 02:39:57;;;;;;;;;0.00;0.00;;;;;9.14;90.31;98958.13;5097071;28;8830;-58
2023/12/24 02:42:25;;;;;;;;;0.25;0.25;;;;;9.15;90.78;98978.38;5096430;28;8829;-57
2023/12/24 02:44:53;;;;;;;;;0.00;0.00;;;;;9.16;90.05;98968.59;5096475;28;9519;-56
2023/12/24 02:47:20;;;;;;;;;0.00;0.00;;;;;9.17;90.42;98954.31;5100080;28;8892;-58
2023/12/24 02:49:48;;;;;;;;;1.00;0.00;;;;;9.16;90.47;98958.81;5094473;28;8816;-59
2023/12/24 02:52:16;;;;;;;;;0.00;0.00;;;;;9.18;90.33;98951.53;5117256;28;8824;-56
2023/12/24 02:54:44;;;;;;;;;3.00;1.00;;;;;9.19;90.09;98952.41;5100654;28;8818;-58
2023/12/24 02:57:12;;;;;;;;;0.00;0.00;;;;;9.21;90.36;98939.81;5091799;28;9009;-59
2023/12/24 02:59:40;;;;;;;;;0.25;0.00;;;;;9.24;90.47;98931.56;5076730;28;8820;-56
2023/12/24 03:02:07;;;;;;;;;0.00;0.00;;;;;9.27;90.04;98924.16;5076222;28;8962;-57
2023/12/24 03:04:35;;;;;;;;;1.00;0.00;;;;;9.31;89.91;98917.59;5076856;28;9486;-59
2023/12/24 03:07:03;;;;;;;;;0.00;0.00;;;;;9.36;89.64;98912.72;5111622;28;8901;-59
2023/12/24 03:09:31;;;;;;;;;0.00;0.00;;;;;9.43;89.93;98908.50;5117024;28;8820;-57
2023/12/24 03:11:58;;;;;;;;;1.00;1.00;;;;;9.47;89.43;98919.69;5117271;28;8846;-59
2023/12/24 03:14:26;;;;;;;;;0.00;0.00;;;;;9.46;89.77;98902.91;5102468;28;8857;-57
2023/12/24 03:16:55;;;;;;;;;0.00;0.00;;;;;9.43;89.16;98908.50;5076336;28;8820;-58
2023/12/24 03:19:24;;;;;;;;;0.00;0.00;;;;;9.35;89.47;98905.69;5076549;28;8830;-58
2023/12/24 03:21:52;;;;;;;;;0.00;0.00;;;;;9.29;89.70;98900.09;5076352;28;8917;-59
2023/12/24 03:24:20;;;;;;;;;0.00;0.00;;;;;9.22;90.31;98894.53;5076063;28;8831;-59
2023/12/24 03:26:47;;;;;;;;;0.00;0.00;;;;;9.17;89.64;98902.06;5076726;28;8840;-59
2023/12/24 03:29:16;;;;;;;;;0.00;0.00;;;;;9.13;90.02;98900.66;5076575;28;8864;-59
2023/12/24 03:31:44;;;;;;;;;0.00;0.00;;;;;9.13;90.13;98903.31;5076610;28;8893;-59
2023/12/24 03:34:11;;;;;;;;;0.00;0.00;;;;;9.10;90.40;98890.31;5076526;28;8820;-59
2023/12/24 03:36:39;;;;;;;;;0.50;0.50;;;;;9.08;90.49;98886.97;5076325;28;8813;-56
2023/12/24 03:39:07;;;;;;;;;0.00;0.00;;;;;9.07;90.30;98885.28;5076204;28;9466;-59
2023/12/24 03:41:34;;;;;;;;;0.00;0.00;;;;;9.07;90.13;98884.44;5076544;28;8840;-56
2023/12/24 03:44:03;;;;;;;;;0.00;0.00;;;;;9.07;90.22;98874.69;5095859;28;8914;-56
2023/12/24 03:46:32;;;;;;;;;0.75;0.75;;;;;9.07;90.66;98871.16;5096311;28;8902;-57
2023/12/24 03:49:00;;;;;;;;;0.00;0.00;;;;;9.07;90.47;98866.72;5095196;28;8830;-56
2023/12/24 03:51:28;;;;;;;;;0.00;0.00;;;;;9.09;91.00;98875.38;5094753;28;8849;-56
2023/12/24 03:53:55;;;;;;;;;0.00;0.00;;;;;9.09;90.54;98867.41;5096751;28;8818;-56
2023/12/24 03:56:23;;;;;;;;;0.00;0.00;;;;;9.10;90.77;98874.38;5096435;28;8822;-58
2023/12/24 03:58:51;;;;;;;;;0.00;0.00;;;;;9.12;90.70;98880.38;5095595;28;8822;-56
2023/12/24 04:01:19;;;;;;;;;0.00;0.00;;;;;9.12;90.41;98869.75;5096002;28;9456;-55
2023/12/24 04:03:47;;;;;;;;;0.00;0.00;;;;;9.14;90.70;98867.81;5098423;28;8833;-57
2023/12/24 04:06:16;;;;;;;;;0.00;0.00;;;;;9.15;90.60;98866.84;5096213;28;8841;-58
2023/12/24 04:08:44;;;;;;;;;0.00;0.00;;;;;9.15;90.55;98876.63;5099213;28;8929;-55
2023/12/24 04:11:11;;;;;;;;;0.00;0.00;;;;;9.18;90.46;98879.84;5112057;28;9486;-56
2023/12/24 04:13:39;;;;;;;;;0.00;0.00;;;;;9.20;90.69;98867.25;5114014;28;8812;-57
2023/12/24 04:16:07;;;;;;;;;0.00;0.00;;;;;9.23;91.01;98868.78;5096059;28;8822;-55
2023/12/24 04:18:34;;;;;;;;;0.00;0.00;;;;;9.25;90.96;98861.50;5096136;28;8873;-57
2023/12/24 04:21:02;;;;;;;;;0.00;0.00;;;;;9.27;90.88;98872.84;5096005;28;8826;-57
2023/12/24 04:23:30;;;;;;;;;0.00;0.00;;;;;9.29;90.71;98852.28;5079605;28;8842;-55
2023/12/24 04:25:58;;;;;;;;;0.00;0.00;;;;;9.30;90.67;98865.44;5083146;28;8824;-57
2023/12/24 04:28:26;;;;;;;;;0.00;0.00;;;;;9.32;90.52;98857.31;5116479;28;8836;-57
2023/12/24 04:30:53;;;;;;;;;0.00;0.00;;;;;9.35;90.85;98870.34;5116303;28;8847;-55
2023/12/24 04:33:21;;;;;;;;;0.00;0.00;;;;;9.36;90.66;98867.56;5116117;28;8835;-57
2023/12/24 04:35:49;;;;;;;;;0.00;0.00;;;;;9.37;90.84;98855.94;5116297;28;8842;-57
2023/12/24 04:38:17;;;;;;;;;0.00;0.00;;;;;9.40;91.13;98839.69;5116063;28;8820;-55
2023/12/24 04:40:44;;;;;;;;;0.00;0.00;;;;;9.41;91.02;98843.22;5078764;28;8836;-57
2023/12/24 04:43:12;;;;;;;;;0.00;0.00;;;;;9.42;90.91;98851.03;5075932;28;9525;-57
2023/12/24 04:45:40;;;;;;;;;0.00;0.00;;;;;9.42;91.12;98848.34;5075771;28;8838;-57
2023/12/24 04:48:08;;;;;;;;;0.00;0.00;;;;;9.43;91.03;98850.03;5075708;28;8943;-57
2023/12/24 04:50:36;;;;;;;;;0.00;0.00;;;;;9.44;90.68;98857.06;5075443;28;8898;-57
2023/12/24 04:53:03;;;;;;;;;0.00;0.00;;;;;9.46;90.78;98854.22;5074988;28;8856;-58
2023/12/24 04:55:31;;;;;;;;;0.00;0.00;;;;;9.46;91.29;98849.78;5077275;28;8828;-56
2023/12/24 04:57:59;;;;;;;;;0.00;0.00;;;;;9.47;90.89;98848.78;5099012;28;8828;-58
2023/12/24 05:00:27;;;;;;;;;0.00;0.00;;;;;9.48;91.23;98852.28;5099102;28;8829;-58
2023/12/24 05:02:55;;;;;;;;;0.00;0.00;;;;;9.49;90.83;98848.66;5099268;28;8814;-58
2023/12/24 05:05:24;;;;;;;;;0.00;0.00;;;;;9.49;91.35;98846.81;5099498;28;8814;-59
2023/12/24 05:07:52;;;;;;;;;0.00;0.00;;;;;9.49;91.39;98828.22;5099584;28;8814;-58
2023/12/24 05:10:20;;;;;;;;;0.00;0.00;;;;;9.51;91.05;98828.94;5101587;28;8810;-57
2023/12/24 05:12:48;;;;;;;;;0.00;0.00;;;;;9.50;90.94;98819.25;5107549;28;8830;-57
2023/12/24 05:15:16;;;;;;;;;0.00;0.00;;;;;9.52;91.16;98825.28;5078565;28;8901;-58
2023/12/24 05:17:44;;;;;;;;;0.00;0.00;;;;;9.51;91.27;98820.97;5078589;28;8851;-57
2023/12/24 05:20:12;;;;;;;;;0.00;0.00;;;;;9.52;91.45;98816.47;5078893;28;9481;-57
2023/12/24 05:22:40;;;;;;;;;0.00;0.00;;;;;9.51;91.66;98820.97;5078877;28;8828;-57
2023/12/24 05:25:07;;;;;;;;;0.00;0.00;;;;;9.52;91.49;98812.00;5078829;28;8832;-57
2023/12/24 05:27:35;;;;;;;;;0.00;0.00;;;;;9.52;91.55;98824.44;5080919;28;8835;-56
2023/12/24 05:30:04;;;;;;;;;0.00;0.00;;;;;9.51;91.81;98810.34;5110234;28;8832;-57
2023/12/24 05:32:31;;;;;;;;;0.00;0.00;;;;;9.51;91.03;98813.00;5078374;28;8829;-58
2023/12/24 05:35:00;;;;;;;;;0.00;0.00;;;;;9.52;91.76;98812.00;5078362;28;8824;-58
2023/12/24 05:37:28;;;;;;;;;0.00;0.00;;;;;9.52;91.58;98808.50;5078658;28;8792;-58
2023/12/24 05:39:55;;;;;;;;;0.00;0.00;;;;;9.51;91.43;98805.03;5078382;28;8850;-58
2023/12/24 05:42:23;;;;;;;;;0.00;0.00;;;;;9.52;91.67;98800.53;5078269;28;8862;-57
2023/12/24 05:44:51;;;;;;;;;0.00;0.00;;;;;9.52;91.86;98796.06;5078258;28;8816;-57
2023/12/24 05:47:18;;;;;;;;;0.00;0.00;;;;;9.52;91.97;98801.38;5078828;28;8966;-58
2023/12/24 05:49:46;;;;;;;;;0.00;0.00;;;;;9.52;91.98;98796.06;5078057;28;8829;-58
2023/12/24 05:52:14;;;;;;;;;0.00;0.00;;;;;9.52;91.79;98782.78;5077737;28;8931;-56
2023/12/24 05:54:42;;;;;;;;;0.00;0.00;;;;;9.52;91.82;98788.09;5078149;28;8820;-58
2023/12/24 05:57:10;;;;;;;;;0.00;0.00;;;;;9.52;91.58;98795.22;5077859;28;8954;-57
2023/12/24 05:59:37;;;;;;;;;0.00;0.00;;;;;9.52;91.95;98793.41;5077702;28;8850;-58
2023/12/24 06:02:05;;;;;;;;;0.00;0.00;;;;;9.52;91.90;98790.75;5077569;28;8905;-58
2023/12/24 06:04:33;;;;;;;;;0.00;0.00;;;;;9.53;91.54;98789.75;5083463;28;8811;-57
2023/12/24 06:07:01;;;;;;;;;0.00;0.00;;;;;9.54;92.16;98782.59;5096953;28;8860;-57
2023/12/24 06:09:29;;;;;;;;;0.00;0.00;;;;;9.53;91.71;98787.09;5098067;28;8814;-57
2023/12/24 06:11:56;;;;;;;;;0.00;0.00;;;;;9.53;92.29;98792.41;5097355;28;8818;-57
2023/12/24 06:14:24;;;;;;;;;0.00;0.00;;;;;9.54;92.05;98783.47;5096908;28;8829;-58
2023/12/24 06:16:52;;;;;;;;;0.00;0.00;;;;;9.55;92.22;98779.81;5097151;28;8812;-58
2023/12/24 06:19:20;;;;;;;;;0.00;0.00;;;;;9.57;92.35;98785.00;5097537;28;8907;-58
2023/12/24 06:21:47;;;;;;;;;0.00;0.00;;;;;9.56;92.28;98805.41;5097116;28;9511;-58
2023/12/24 06:24:19;;;;;;;;;0.00;0.00;;;;;9.58;92.12;98786.66;5096584;28;8822;-58
2023/12/24 06:26:46;;;;;;;;;0.00;0.00;;;;;9.58;92.18;98784.84;5097170;28;8802;-57
2023/12/24 06:29:14;;;;;;;;;0.00;0.00;;;;;9.59;92.64;98788.34;5097383;28;9511;-57
2023/12/24 06:31:42;;;;;;;;;0.00;0.00;;;;;9.59;92.17;98791.84;5097603;28;8885;-57
2023/12/24 06:34:11;;;;;;;;;0.00;0.00;;;;;9.59;92.16;98791.84;5097749;28;8968;-58
2023/12/24 06:36:39;;;;;;;;;0.00;0.00;;;;;9.60;92.41;98798.84;5096128;28;8928;-55
2023/12/24 06:39:06;;;;;;;;;0.00;0.00;;;;;9.61;92.14;98784.56;5096461;28;8960;-58
2023/12/24 06:41:34;;;;;;;;;0.00;0.00;;;;;9.62;92.28;98780.91;5097489;28;9492;-56
2023/12/24 06:44:02;;;;;;;;;0.00;0.00;;;;;9.62;92.31;98778.25;5101916;28;8810;-58
2023/12/24 06:46:29;;;;;;;;;0.00;0.00;;;;;9.63;92.51;98779.94;5117443;28;8831;-58
2023/12/24 06:48:57;;;;;;;;;0.00;0.00;;;;;9.64;92.20;98783.44;5108744;28;8818;-57
2023/12/24 06:51:25;;;;;;;;;0.00;0.00;;;;;9.64;92.16;98778.94;5096908;28;8866;-58
2023/12/24 06:53:53;;;;;;;;;0.00;0.00;;;;;9.65;91.97;98780.63;5097087;28;8838;-58
2023/12/24 06:56:21;;;;;;;;;0.00;0.00;;;;;9.66;92.07;98779.63;5082272;28;8836;-58
2023/12/24 06:58:49;;;;;;;;;0.00;0.00;;;;;9.67;92.48;98775.16;5076711;28;8812;-58
2023/12/24 07:01:16;;;;;;;;;0.00;0.00;;;;;9.65;92.63;98775.31;5096198;28;8826;-58
2023/12/24 07:03:44;;;;;;;;;0.00;0.00;;;;;9.67;92.42;98786.66;5117312;28;8808;-57
2023/12/24 07:06:12;;;;;;;;;0.00;0.00;;;;;9.68;92.33;98769.72;5117601;28;8823;-57
2023/12/24 07:08:40;;;;;;;;;0.00;0.00;;;;;9.69;92.40;98776.69;5117037;28;8832;-58
2023/12/24 07:11:08;;;;;;;;;0.00;0.00;;;;;9.70;92.69;98775.72;5116755;28;8844;-58
2023/12/24 07:13:36;;;;;;;;;0.00;0.00;;;;;9.72;92.56;98778.22;5082171;28;8922;-58
2023/12/24 07:16:04;;;;;;;;;0.00;0.00;;;;;9.72;92.37;98765.75;5076255;28;8824;-58
2023/12/24 07:18:32;;;;;;;;;0.00;0.00;;;;;9.72;92.26;98763.09;5075915;28;9008;-58
2023/12/24 07:21:00;;;;;;;;;0.00;0.00;;;;;9.73;92.01;98775.41;5075968;28;8843;-57
2023/12/24 07:23:28;;;;;;;;;0.00;0.00;;;;;9.74;92.39;98758.50;5076359;28;8817;-58
2023/12/24 07:25:56;;;;;;;;;0.00;0.00;;;;;9.76;91.96;98774.28;5075984;28;8840;-58
2023/12/24 07:28:24;;;;;;;;;0.00;0.00;;;;;9.77;92.40;98778.63;5076305;28;8840;-58
2023/12/24 07:30:52;;;;;;;;;0.00;0.00;;;;;9.78;92.27;98783.81;5076755;28;8970;-56
2023/12/24 07:33:20;;;;;;;;;0.00;0.00;;;;;9.78;92.93;98775.81;5076031;28;8821;-57
2023/12/24 07:35:48;;;;;;;;;0.00;0.00;;;;;9.78;92.35;98757.22;5076529;28;8946;-58
2023/12/24 07:38:15;;;;;;;;;0.00;0.00;;;;;9.79;92.72;98777.50;5089797;28;8830;-58
2023/12/24 07:40:43;;;;;;;;;0.00;0.00;;;;;9.82;92.17;98787.00;5096411;28;8822;-57
2023/12/24 07:43:11;;;;;;;;;0.00;0.00;;;;;9.82;92.32;98769.25;5096515;28;8814;-57
2023/12/24 07:45:39;;;;;;;;;0.00;0.00;;;;;9.83;92.42;98764.75;5093349;28;8830;-58
2023/12/24 07:48:08;;;;;;;;;0.00;0.00;;;;;9.83;92.41;98765.59;5095179;28;9475;-58
2023/12/24 07:50:37;;;;;;;;;0.00;0.00;;;;;9.85;93.02;98770.75;5096908;28;8841;-58
2023/12/24 07:53:05;;;;;;;;;0.00;0.00;;;;;9.85;92.37;98771.59;5095079;28;8806;-58
2023/12/24 07:55:32;;;;;;;;;0.00;0.00;;;;;9.87;92.52;98763.50;5095546;28;8813;-58
2023/12/24 07:58:00;;;;;;;;;0.00;0.00;;;;;9.87;92.82;98763.50;5096893;28;9565;-57
2023/12/24 08:00:28;;;;;;;;;0.00;0.00;;;;;9.89;92.56;98761.50;5096668;28;9482;-58
2023/12/24 08:02:55;;;;;;;;;0.00;0.00;;;;;9.89;92.79;98765.03;5096595;28;9483;-58
2023/12/24 08:05:24;;;;;;;;;0.00;0.00;;;;;9.90;93.30;98765.84;5105141;28;8836;-58
2023/12/24 08:07:52;;;;;;;;;0.00;0.00;;;;;9.90;92.27;98763.19;5114750;28;8843;-58
2023/12/24 08:10:20;;;;;;;;;0.00;0.00;;;;;9.91;92.57;98760.38;5095626;28;8815;-55
2023/12/24 08:12:48;;;;;;;;;0.00;0.00;;;;;9.93;92.83;98757.59;5095014;28;9524;-58
2023/12/24 08:15:21;;;;;;;;;0.00;0.00;;;;;9.93;92.61;98769.03;5095457;28;8840;-58
2023/12/24 08:17:49;;;;;;;;;0.00;0.00;;;;;9.95;92.84;98785.69;5095149;28;8840;-57
2023/12/24 08:20:21;;;;;;;;;0.00;0.00;;;;;9.96;92.79;98775.91;5095612;28;8807;-58
2023/12/24 08:22:49;;;;;;;;;0.00;0.00;;;;;9.97;92.51;98764.28;5115721;28;8834;-55
2023/12/24 08:25:16;;;;;;;;;0.00;0.00;;;;;9.98;92.41;98768.59;5115873;28;8863;-57
2023/12/24 08:27:44;;;;;;;;;0.00;0.00;;;;;9.98;92.48;98761.47;5115137;28;8970;-57
2023/12/24 08:30:12;;;;;;;;;0.00;0.00;;;;;10.00;92.54;98762.16;5116295;28;8858;-57
2023/12/24 08:32:40;;;;;;;;;0.00;0.00;;;;;10.01;92.45;98763.00;5120096;28;9659;-54
2023/12/24 08:35:07;;;;;;;;;0.00;0.00;;;;;10.02;92.86;98773.47;5119817;28;8812;-56
2023/12/24 08:37:36;;;;;;;;;0.00;0.00;;;;;10.03;92.66;98772.53;5102127;28;8950;-56
2023/12/24 08:40:04;;;;;;;;;0.00;0.00;;;;;10.03;92.65;98777.84;5078855;28;8843;-54
2023/12/24 08:42:32;;;;;;;;;0.00;0.00;;;;;10.04;92.53;98774.22;5079038;28;8949;-56
2023/12/24 08:45:00;;;;;;;;;0.00;0.00;;;;;10.05;92.81;98767.91;5079362;28;8843;-56
2023/12/24 08:47:27;;;;;;;;;0.00;0.00;;;;;10.07;92.65;98755.28;5078711;28;8828;-56
2023/12/24 08:49:56;;;;;;;;;0.00;0.00;;;;;10.08;92.47;98772.94;5079085;28;8854;-55
2023/12/24 08:52:25;;;;;;;;;0.00;0.00;;;;;10.08;92.76;98756.97;5078937;28;8832;-55
2023/12/24 08:54:52;;;;;;;;;0.00;0.00;;;;;10.10;92.50;98764.81;5079849;28;8812;-55
2023/12/24 08:57:20;;;;;;;;;0.00;0.00;;;;;10.10;93.02;98760.31;5086797;28;8944;-55
2023/12/24 08:59:48;;;;;;;;;0.00;0.00;;;;;10.11;92.48;98747.84;5099587;28;8841;-55
2023/12/24 09:02:16;;;;;;;;;0.00;0.00;;;;;10.11;93.00;98767.28;5099508;28;8879;-55
2023/12/24 09:04:46;;;;;;;;;0.00;0.00;;;;;10.12;92.61;98741.53;5095878;28;8826;-55
2023/12/24 09:07:14;;;;;;;;;0.00;0.00;;;;;10.14;92.72;98756.38;5102616;28;9517;-54
2023/12/24 09:09:42;;;;;;;;;0.00;0.00;;;;;10.14;92.63;98756.38;5115075;28;8901;-54
2023/12/24 09:12:10;;;;;;;;;0.00;0.00;;;;;10.15;92.46;98758.06;5097278;28;8952;-56
2023/12/24 09:14:37;;;;;;;;;0.00;0.00;;;;;10.15;93.05;98752.72;5118988;28;9531;-56
2023/12/24 09:17:05;;;;;;;;;0.00;0.00;;;;;10.16;92.83;98749.06;5119077;28;8814;-55
2023/12/24 09:19:33;;;;;;;;;0.00;0.00;;;;;10.17;92.71;98747.28;5119380;28;8888;-57
2023/12/24 09:22:01;;;;;;;;;0.00;0.00;;;;;10.18;92.73;98749.75;5118990;28;8846;-58
2023/12/24 09:24:28;;;;;;;;;0.00;0.00;;;;;10.19;93.09;98748.81;5114694;28;8860;-57
2023/12/24 09:26:56;;;;;;;;;0.00;0.00;;;;;10.20;92.84;98753.13;5098570;28;8841;-57
2023/12/24 09:29:24;;;;;;;;;0.00;0.00;;;;;10.21;92.68;98752.16;5083052;28;8832;-57
2023/12/24 09:31:52;;;;;;;;;0.00;0.00;;;;;10.22;92.83;98753.81;5077963;28;8820;-57
2023/12/24 09:34:20;;;;;;;;;0.00;0.00;;;;;10.22;93.24;98756.47;5078178;28;8828;-57
2023/12/24 09:36:48;;;;;;;;;0.00;0.00;;;;;10.25;93.03;98773.97;5078424;28;8823;-57
2023/12/24 09:39:15;;;;;;;;;0.00;0.00;;;;;10.26;92.59;98789.75;5077779;28;8836;-58
2023/12/24 09:41:43;;;;;;;;;0.00;0.00;;;;;10.28;92.86;98761.22;5076664;28;8863;-55
2023/12/24 09:44:11;;;;;;;;;0.00;0.00;;;;;10.29;92.95;98770.00;5077579;28;8844;-57
2023/12/24 09:46:39;;;;;;;;;0.00;0.00;;;;;10.32;93.11;98764.41;5077714;28;8912;-57
2023/12/24 09:49:07;;;;;;;;;0.00;0.00;;;;;10.33;92.85;98769.56;5076657;28;8832;-59
2023/12/24 09:51:35;;;;;;;;;0.00;0.00;;;;;10.35;92.87;98767.59;5077155;28;8966;-56
2023/12/24 09:54:03;;;;;;;;;0.00;0.00;;;;;10.36;92.91;98773.75;5077363;28;8855;-57
2023/12/24 09:56:30;;;;;;;;;0.00;0.00;;;;;10.37;93.16;98767.44;5077867;28;8840;-56
2023/12/24 09:58:58;;;;;;;;;0.75;0.00;;;;;10.39;92.56;98768.16;5077405;28;8832;-58
2023/12/24 10:01:33;;;;;;;;;0.00;0.00;;;;;10.40;93.09;98772.47;5085688;28;8833;-58
2023/12/24 10:04:00;;;;;;;;;0.00;0.00;;;;;10.41;92.51;98764.31;5077337;28;8854;-57
2023/12/24 10:06:30;;;;;;;;;0.00;0.00;;;;;10.42;92.46;98763.38;5077458;28;8838;-56
2023/12/24 10:08:58;;;;;;;;;0.00;0.00;;;;;10.42;92.25;98755.38;5097029;28;8851;-58
2023/12/24 10:11:33;;;;;;;;;0.00;0.00;;;;;10.43;92.86;98754.38;5096205;28;8873;-58
2023/12/24 10:14:00;;;;;;;;;0.00;0.00;;;;;10.44;92.94;98766.69;5096394;28;8813;-56
2023/12/24 10:16:29;;;;;;;;;0.00;0.00;;;;;10.42;92.46;98760.69;5097487;28;8815;-56
2023/12/24 10:18:58;;;;;;;;;0.00;0.00;;;;;10.43;92.80;98751.72;5097492;28;8814;-56
2023/12/24 10:21:27;;;;;;;;;0.00;0.00;;;;;10.43;92.68;98769.50;5096248;28;8844;-59
2023/12/24 10:23:55;;;;;;;;;0.00;0.00;;;;;10.43;92.51;98759.72;5097569;28;8826;-59
2023/12/24 10:26:23;;;;;;;;;0.00;0.00;;;;;10.43;92.51;98756.19;5097181;28;8842;-57
2023/12/24 10:28:51;;;;;;;;;0.00;0.00;;;;;10.44;92.82;98729.44;5099957;28;8885;-57
2023/12/24 10:31:28;;;;;;;;;0.00;0.00;;;;;10.46;93.17;98739.94;5107941;28;8896;-58
2023/12/24 10:33:56;;;;;;;;;0.00;0.00;;;;;10.46;92.73;98731.97;5117172;28;8904;-58
2023/12/24 10:36:24;;;;;;;;;0.00;0.00;;;;;10.46;92.54;98743.44;5091463;28;8816;-58
2023/12/24 10:38:51;;;;;;;;;0.00;0.00;;;;;10.46;92.99;98746.09;5076748;28;8840;-56
2023/12/24 10:41:19;;;;;;;;;0.00;0.00;;;;;10.46;92.49;98734.63;5076779;28;8928;-58
2023/12/24 10:43:47;;;;;;;;;0.00;0.00;;;;;10.46;92.66;98727.47;5076453;28;8871;-58
2023/12/24 10:46:15;;;;;;;;;0.00;0.00;;;;;10.46;92.69;98722.13;5076058;28;8840;-56
2023/12/24 10:48:43;;;;;;;;;0.00;0.00;;;;;10.46;93.08;98716.81;5115097;28;8910;-58
2023/12/24 10:51:12;;;;;;;;;0.00;0.00;;;;;10.47;92.95;98710.50;5117218;28;8869;-58
2023/12/24 10:53:40;;;;;;;;;0.00;0.00;;;;;10.48;92.89;98709.50;5096931;28;8835;-57
2023/12/24 10:56:08;;;;;;;;;0.00;0.00;;;;;10.50;92.77;98706.69;5076340;28;8932;-57
2023/12/24 10:58:36;;;;;;;;;0.00;0.00;;;;;10.50;92.88;98715.53;5075592;28;8820;-56
2023/12/24 11:01:04;;;;;;;;;0.00;0.00;;;;;10.52;92.57;98683.44;5075150;28;8840;-55
2023/12/24 11:03:33;;;;;;;;;0.00;0.00;;;;;10.53;92.79;98693.09;5074350;28;8816;-58
2023/12/24 11:06:01;;;;;;;;;0.00;0.00;;;;;10.54;92.92;98695.59;5074530;28;8943;-56
2023/12/24 11:08:30;;;;;;;;;0.00;0.00;;;;;10.56;92.74;98687.47;5075235;28;8878;-56
2023/12/24 11:11:00;;;;;;;;;0.00;0.00;;;;;10.56;93.05;98688.28;5076182;28;8929;-56
2023/12/24 11:13:27;;;;;;;;;0.00;0.00;;;;;10.56;92.96;98698.94;5075459;28;8877;-56
2023/12/24 11:15:55;;;;;;;;;0.00;0.00;;;;;10.58;92.99;98688.16;5075411;28;8980;-55
2023/12/24 11:18:23;;;;;;;;;0.00;0.00;;;;;10.59;92.87;98708.44;5076036;28;9545;-55
2023/12/24 11:20:51;;;;;;;;;0.00;0.00;;;;;10.60;92.88;98689.66;5075447;28;8863;-58
2023/12/24 11:23:19;;;;;;;;;0.00;0.00;;;;;10.61;93.02;98701.97;5078460;28;9633;-58
2023/12/24 11:25:47;;;;;;;;;0.00;0.00;;;;;10.63;93.06;98710.66;5095578;28;9487;-58
2023/12/24 11:28:14;;;;;;;;;0.00;0.00;;;;;10.65;92.87;98692.72;5094429;28;8853;-58
2023/12/24 11:30:42;;;;;;;;;0.00;0.00;;;;;10.66;92.58;98690.88;5093331;28;8907;-58
2023/12/24 11:33:10;;;;;;;;;0.00;0.00;;;;;10.68;92.75;98697.72;5094009;28;9467;-58
2023/12/24 11:35:37;;;;;;;;;0.00;0.00;;;;;10.70;92.71;98705.56;5093142;28;8826;-56
2023/12/24 11:38:05;;;;;;;;;0.00;0.00;;;;;10.70;93.08;98703.72;5094409;28;8826;-58
2023/12/24 11:40:33;;;;;;;;;0.00;0.00;;;;;10.71;93.12;98684.09;5093469;28;8822;-57
2023/12/24 11:43:01;;;;;;;;;0.00;0.00;;;;;10.73;93.03;98695.44;5094885;28;8826;-58
2023/12/24 11:45:29;;;;;;;;;0.00;0.00;;;;;10.74;92.69;98686.47;5096622;28;8817;-57
2023/12/24 11:47:59;;;;;;;;;0.00;0.00;;;;;10.76;93.09;98689.81;5095844;28;8826;-58
2023/12/24 11:50:27;;;;;;;;;0.00;0.00;;;;;10.77;92.59;98699.47;5093767;28;8818;-58
2023/12/24 11:52:54;;;;;;;;;0.00;0.00;;;;;10.79;92.77;98684.19;5093838;28;8826;-58